Time;durP1;ratioP1;P1;durP2;ratioP2;P2;SDS_P1;SDS_P2;PMS_P1;PMS_P2;Temp;Humidity;BMP_temperature;BMP_pressure;BME280_temperature;BME280_humidity;BME280_pressure;Samples;Min_cycle;Max_cycle;Signal;HPM_P1;HPM_P2
2022/02/04 00:06:26;;;;;;;7.83;6.40;;;8.80;1.00;8.90;100094.00;;;;5078714;28;20573;-83
2022/02/04 00:09:17;;;;;;;9.27;7.60;;;8.50;1.00;8.90;100090.00;;;;5079350;28;20556;-81
2022/02/04 00:20:26;;;;;;;9.10;6.97;;;8.30;1.00;8.80;100075.00;;;;5074928;28;20485;-80
2022/02/04 00:23:08;;;;;;;8.57;6.70;;;8.30;1.00;8.80;100086.00;;;;5092439;28;20492;-80
2022/02/04 00:25:53;;;;;;;15.37;7.03;;;8.30;1.00;8.80;100073.00;;;;5083571;28;20455;-80
2022/02/04 00:28:30;;;;;;;7.60;6.33;;;8.30;1.00;8.80;100075.00;;;;5083933;28;20501;-81
2022/02/04 00:31:14;;;;;;;8.13;6.97;;;8.30;1.00;8.80;100097.00;;;;5082766;28;20472;-82
2022/02/04 00:33:45;;;;;;;8.13;7.10;;;8.30;1.00;8.80;100086.00;;;;5093995;28;20963;-81
2022/02/04 00:36:19;;;;;;;9.13;7.23;;;8.30;1.00;8.80;100074.00;;;;5075621;28;20477;-83
2022/02/04 00:38:52;;;;;;;8.70;7.27;;;8.40;1.00;8.80;100078.00;;;;5077042;28;20459;-82
2022/02/04 00:41:24;;;;;;;8.40;6.17;;;8.30;1.00;8.80;100088.00;;;;5077183;28;21246;-83
2022/02/04 00:43:55;;;;;;;8.50;7.70;;;8.30;1.00;8.80;100079.00;;;;5077543;28;20485;-82
2022/02/04 00:46:28;;;;;;;8.60;7.27;;;8.30;1.00;8.90;100066.00;;;;5073087;28;20838;-81
2022/02/04 00:49:19;;;;;;;9.53;7.07;;;8.40;1.00;8.90;100070.00;;;;5077666;28;20483;-82
2022/02/04 00:51:58;;;;;;;8.33;6.70;;;8.40;1.00;8.90;100094.00;;;;5079129;28;20520;-83
2022/02/04 00:54:41;;;;;;;7.70;6.43;;;8.40;1.00;8.90;100081.00;;;;5077782;28;20451;-83
2022/02/04 00:57:16;;;;;;;8.07;6.70;;;8.40;1.00;8.90;100079.00;;;;5076365;28;20592;-84
2022/02/04 01:13:42;;;;;;;8.00;6.80;;;8.40;1.00;8.90;100084.00;;;;5080078;28;20450;-82
2022/02/04 01:27:17;;;;;;;9.10;8.20;;;8.40;1.00;8.80;100099.00;;;;5065569;28;20465;-83
2022/02/04 01:29:55;;;;;;;7.30;5.57;;;8.40;1.00;8.90;100074.00;;;;5094483;28;20474;-83
2022/02/04 01:32:24;;;;;;;8.97;5.70;;;8.40;1.00;8.90;100098.00;;;;5094466;28;20462;-84
2022/02/04 01:34:52;;;;;;;6.43;4.87;;;8.40;1.00;8.90;100092.00;;;;5100753;28;20458;-84
2022/02/04 01:37:21;;;;;;;6.80;5.43;;;8.40;1.00;8.90;100081.00;;;;5100168;28;20439;-84
2022/02/04 01:39:49;;;;;;;6.53;5.20;;;8.50;1.00;8.90;100095.00;;;;5100943;28;20496;-84
2022/02/04 01:42:19;;;;;;;6.80;6.07;;;8.70;1.00;8.90;100098.00;;;;5088474;28;20450;-84
2022/02/04 01:44:47;;;;;;;6.10;5.50;;;8.50;1.00;9.00;100105.00;;;;5085710;28;20450;-83
2022/02/04 01:47:16;;;;;;;7.67;6.20;;;8.50;1.00;8.90;100098.00;;;;5090177;28;20454;-83
2022/02/04 01:49:45;;;;;;;7.40;5.77;;;8.60;1.00;8.90;100096.00;;;;5081973;28;20515;-84
2022/02/04 01:52:14;;;;;;;8.87;6.13;;;8.40;1.00;8.80;100107.00;;;;5094330;28;20466;-83
2022/02/04 01:54:42;;;;;;;6.93;5.53;;;8.40;1.00;8.80;100091.00;;;;5097150;28;20442;-84
2022/02/04 01:57:10;;;;;;;7.20;6.47;;;8.60;1.00;8.80;100086.00;;;;5083589;28;20946;-82
2022/02/04 01:59:40;;;;;;;6.57;5.93;;;8.30;1.00;8.90;100092.00;;;;5082630;28;20454;-83
2022/02/04 02:02:09;;;;;;;6.80;5.70;;;8.40;1.00;8.80;100085.00;;;;5081198;28;20458;-83
2022/02/04 02:04:37;;;;;;;6.40;5.77;;;8.40;1.00;8.80;100074.00;;;;5079807;28;20458;-82
2022/02/04 02:07:11;;;;;;;7.67;6.03;;;8.40;1.00;8.80;100087.00;;;;5077821;28;20459;-82
2022/02/04 02:09:50;;;;;;;8.13;6.70;;;8.30;1.00;8.80;100097.00;;;;5082921;28;20497;-84
2022/02/04 02:12:20;;;;;;;7.63;6.60;;;8.30;1.00;8.80;100088.00;;;;5079158;28;20466;-83
2022/02/04 02:14:59;;;;;;;6.70;5.80;;;8.30;1.00;8.80;100078.00;;;;5078089;28;20450;-83
2022/02/04 02:48:58;;;;;;;6.23;5.40;;;8.40;1.00;8.80;100067.00;;;;5049429;28;20474;-83
2022/02/04 02:51:47;;;;;;;6.10;5.43;;;8.40;1.00;8.80;100086.00;;;;5071684;28;20478;-83
2022/02/04 02:54:36;;;;;;;5.80;5.20;;;8.30;1.00;8.80;100085.00;;;;5071971;28;20458;-82
2022/02/04 02:57:25;;;;;;;7.00;4.77;;;8.50;1.00;8.80;100078.00;;;;5075147;28;20469;-83
2022/02/04 02:59:58;;;;;;;5.97;5.13;;;8.30;1.00;8.80;100081.00;;;;5069936;28;20454;-83
2022/02/04 03:02:27;;;;;;;7.10;5.60;;;8.30;1.00;8.80;100070.00;;;;5073057;28;20481;-83
2022/02/04 03:04:55;;;;;;;8.03;6.23;;;8.30;1.00;8.80;100063.00;;;;5076715;28;20482;-83
2022/02/04 03:07:24;;;;;;;5.87;4.47;;;8.40;1.00;8.80;100074.00;;;;5076276;28;20465;-84
2022/02/04 03:09:52;;;;;;;6.50;4.60;;;8.30;1.00;8.80;100059.00;;;;5075760;28;20477;-84
2022/02/04 03:12:22;;;;;;;6.40;4.80;;;8.40;1.00;8.80;100067.00;;;;5072914;28;20537;-84
2022/02/04 03:14:52;;;;;;;5.17;4.67;;;8.40;1.00;8.80;100050.00;;;;5078686;28;20472;-84
2022/02/04 03:17:21;;;;;;;5.60;5.00;;;8.30;1.00;8.80;100061.00;;;;5077543;28;20493;-83
2022/02/04 03:19:53;;;;;;;5.30;4.80;;;8.40;1.00;8.80;100082.00;;;;5080218;28;20454;-82
2022/02/04 03:22:21;;;;;;;6.23;4.53;;;8.40;1.00;8.80;100066.00;;;;5080630;28;20451;-83
2022/02/04 03:24:57;;;;;;;8.20;4.80;;;8.50;1.00;8.80;100063.00;;;;5078997;28;20993;-82
2022/02/04 03:27:34;;;;;;;5.13;4.63;;;8.40;1.00;8.80;100090.00;;;;5100227;28;20460;-83
2022/02/04 03:30:08;;;;;;;6.00;5.40;;;8.40;1.00;8.80;100084.00;;;;5082394;28;20482;-83
2022/02/04 03:32:41;;;;;;;8.13;4.83;;;8.40;1.00;8.80;100077.00;;;;5087357;28;21021;-83
2022/02/04 03:35:09;;;;;;;6.10;4.10;;;8.30;1.00;8.80;100093.00;;;;5083049;28;20451;-84
2022/02/04 03:37:38;;;;;;;5.40;4.90;;;8.40;1.00;8.80;100091.00;;;;5085835;28;20549;-84
2022/02/04 03:40:08;;;;;;;4.30;3.90;;;8.30;1.00;8.80;100080.00;;;;5090928;28;20470;-83
2022/02/04 03:42:37;;;;;;;5.60;4.60;;;8.40;1.00;8.80;100085.00;;;;5091054;28;20444;-84
2022/02/04 03:45:06;;;;;;;5.40;4.53;;;8.30;1.00;8.80;100102.00;;;;5083875;28;20446;-84
2022/02/04 03:47:35;;;;;;;5.80;4.50;;;8.30;1.00;8.70;100087.00;;;;5098571;28;20447;-84
2022/02/04 03:50:05;;;;;;;5.03;4.53;;;8.30;1.00;8.70;100100.00;;;;5081862;28;20505;-83
2022/02/04 03:52:33;;;;;;;7.30;5.53;;;8.20;1.00;8.70;100083.00;;;;5082696;28;20450;-83
2022/02/04 03:55:02;;;;;;;5.00;4.43;;;8.30;1.00;8.70;100087.00;;;;5077885;28;20446;-82
2022/02/04 03:57:30;;;;;;;6.87;4.60;;;8.30;1.00;8.70;100096.00;;;;5080245;28;20461;-84
2022/02/04 03:59:59;;;;;;;5.80;4.40;;;8.30;1.00;8.70;100090.00;;;;5080644;28;20482;-83
2022/02/04 04:02:28;;;;;;;5.73;4.83;;;8.30;1.00;8.70;100100.00;;;;5080318;28;20461;-83
2022/02/04 04:04:56;;;;;;;5.07;4.20;;;8.20;1.00;8.70;100093.00;;;;5079904;28;20454;-84
2022/02/04 04:07:24;;;;;;;4.63;4.10;;;8.30;1.00;8.70;100101.00;;;;5081714;28;21053;-84
2022/02/04 04:10:00;;;;;;;6.07;4.60;;;8.40;1.00;8.70;100106.00;;;;5082674;28;20516;-84
2022/02/04 04:12:28;;;;;;;4.93;4.13;;;8.40;1.00;8.70;100090.00;;;;5079647;28;20445;-84
2022/02/04 04:15:07;;;;;;;5.43;4.60;;;8.20;1.00;8.70;100101.00;;;;5076230;28;20470;-84
2022/02/04 04:17:40;;;;;;;5.90;4.60;;;8.20;1.00;8.70;100089.00;;;;5078543;28;20458;-84
2022/02/04 04:20:12;;;;;;;5.67;5.07;;;8.20;1.00;8.70;100099.00;;;;5060738;28;20487;-84
2022/02/04 04:22:41;;;;;;;7.60;5.93;;;8.20;1.00;8.70;100096.00;;;;5077407;28;20446;-84
2022/02/04 04:25:18;;;;;;;5.60;4.97;;;8.20;1.00;8.70;100078.00;;;;5077519;28;20447;-84
2022/02/04 04:27:48;;;;;;;6.33;4.83;;;8.30;1.00;8.70;100103.00;;;;5076376;28;20462;-84
2022/02/04 04:30:19;;;;;;;6.10;5.33;;;8.30;1.00;8.70;100096.00;;;;5072507;28;20474;-84
2022/02/04 04:32:48;;;;;;;7.37;5.00;;;8.20;1.00;8.70;100090.00;;;;5077091;28;20508;-84
2022/02/04 04:35:19;;;;;;;6.53;5.53;;;8.20;1.00;8.70;100094.00;;;;5078727;28;20448;-83
2022/02/04 04:37:53;;;;;;;5.47;4.90;;;8.30;1.00;8.70;100105.00;;;;5075831;28;20462;-84
2022/02/04 04:40:35;;;;;;;5.60;4.90;;;8.30;1.00;8.70;100088.00;;;;5075632;28;20468;-84
2022/02/04 04:43:14;;;;;;;7.20;6.13;;;8.20;1.00;8.60;100091.00;;;;5076442;28;20599;-83
2022/02/04 04:46:13;;;;;;;7.30;5.60;;;8.30;1.00;8.60;100079.00;;;;5075546;28;20462;-83
2022/02/04 05:28:10;;;;;;;9.07;6.87;;;8.30;1.00;8.70;100102.00;;;;5098040;28;20529;-83
2022/02/04 05:30:38;;;;;;;8.87;5.70;;;8.30;1.00;8.70;100112.00;;;;5080025;28;20486;-82
2022/02/04 05:33:07;;;;;;;7.67;6.77;;;8.20;1.00;8.70;100107.00;;;;5077211;28;20447;-84
2022/02/04 05:35:37;;;;;;;7.70;6.90;;;8.30;1.00;8.70;100103.00;;;;5077086;28;20810;-84
2022/02/04 05:38:09;;;;;;;8.13;7.33;;;8.30;1.00;8.70;100095.00;;;;5078136;28;20533;-84
2022/02/04 05:40:41;;;;;;;8.10;6.90;;;8.30;1.00;8.70;100118.00;;;;5062515;28;20890;-83
2022/02/04 05:43:17;;;;;;;6.80;6.10;;;8.30;1.00;8.70;100091.00;;;;5076330;28;20454;-84
2022/02/04 05:45:53;;;;;;;8.60;6.60;;;8.30;1.00;8.70;100114.00;;;;5063685;28;21245;-84
2022/02/04 05:48:23;;;;;;;10.23;7.30;;;8.20;1.00;8.70;100119.00;;;;5075987;28;20858;-84
2022/02/04 05:51:10;;;;;;;7.77;6.60;;;8.20;1.00;8.70;100103.00;;;;5077798;28;20589;-83
2022/02/04 05:53:48;;;;;;;6.80;6.10;;;8.20;1.00;8.70;100110.00;;;;5080661;28;20450;-83
2022/02/04 05:56:27;;;;;;;9.30;7.20;;;8.20;1.00;8.70;100114.00;;;;5081225;28;20479;-82
2022/02/04 05:59:03;;;;;;;7.80;6.93;;;8.20;1.00;8.70;100105.00;;;;5078489;28;20500;-82
2022/02/04 06:01:48;;;;;;;8.10;6.70;;;8.20;1.00;8.60;100109.00;;;;5087207;28;20486;-82
2022/02/04 06:04:32;;;;;;;9.10;7.53;;;8.20;1.00;8.60;100106.00;;;;5094243;28;20458;-83
2022/02/04 06:07:15;;;;;;;8.40;7.33;;;8.20;1.00;8.60;100100.00;;;;5095745;28;20458;-83
2022/02/04 06:23:42;;;;;;;9.87;8.00;;;8.00;1.00;8.60;100098.00;;;;5079633;28;20455;-82
2022/02/04 06:26:10;;;;;;;10.60;8.30;;;8.10;1.00;8.60;100103.00;;;;5078657;28;20451;-82
2022/02/04 06:28:41;;;;;;;13.80;8.70;;;8.20;1.00;8.60;100105.00;;;;5092033;28;20461;-84
2022/02/04 06:31:09;;;;;;;9.80;7.87;;;8.20;1.00;8.60;100114.00;;;;5078917;28;20565;-82
2022/02/04 06:33:38;;;;;;;8.33;7.20;;;8.20;1.00;8.60;100105.00;;;;5080423;28;20472;-82
2022/02/04 06:36:07;;;;;;;8.93;7.70;;;8.10;1.00;8.60;100110.00;;;;5076569;28;20474;-83
2022/02/04 06:38:35;;;;;;;9.10;7.40;;;8.10;1.00;8.50;100095.00;;;;5075169;28;20537;-83
2022/02/04 06:41:05;;;;;;;10.93;7.80;;;8.00;1.00;8.40;100089.00;;;;5093265;28;20853;-83
2022/02/04 06:43:35;;;;;;;11.90;9.07;;;8.00;1.00;8.40;100111.00;;;;5080929;28;20466;-81
2022/02/04 06:46:04;;;;;;;11.10;9.20;;;7.90;1.00;8.40;100100.00;;;;5080947;28;20533;-82
2022/02/04 06:48:32;;;;;;;9.53;8.37;;;7.90;1.00;8.40;100103.00;;;;5080506;28;20453;-83
2022/02/04 06:51:02;;;;;;;11.47;9.57;;;7.90;1.00;8.40;100102.00;;;;5081059;28;20482;-82
2022/02/04 06:53:30;;;;;;;11.87;10.00;;;7.90;1.00;8.40;100093.00;;;;5060463;28;20515;-82
2022/02/04 06:55:58;;;;;;;10.53;9.20;;;7.90;1.00;8.40;100117.00;;;;5081450;28;20458;-84
2022/02/04 06:58:28;;;;;;;10.13;8.77;;;8.00;1.00;8.50;100101.00;;;;5082058;28;20989;-84
2022/02/04 07:00:56;;;;;;;12.57;10.00;;;8.00;1.00;8.50;100108.00;;;;5062226;28;20474;-84
2022/02/04 07:03:25;;;;;;;11.63;9.97;;;8.00;1.00;8.60;100103.00;;;;5082265;28;20438;-84
2022/02/04 07:05:56;;;;;;;12.50;9.47;;;8.10;1.00;8.60;100119.00;;;;5083978;28;20533;-83
2022/02/04 07:08:44;;;;;;;11.63;9.57;;;8.10;1.00;8.60;100109.00;;;;5082006;28;20473;-84
2022/02/04 07:11:36;;;;;;;14.33;10.30;;;8.30;1.00;8.70;100101.00;;;;5087002;28;20850;-84
2022/02/04 07:14:15;;;;;;;12.33;9.37;;;8.20;1.00;8.70;100104.00;;;;5086164;28;20449;-84
2022/02/04 07:17:06;;;;;;;12.73;10.40;;;8.20;1.00;8.70;100123.00;;;;5083026;28;20454;-84
2022/02/04 07:19:47;;;;;;;12.90;9.80;;;8.20;1.00;8.70;100122.00;;;;5082850;28;20450;-82
2022/02/04 07:22:17;;;;;;;12.30;9.70;;;8.20;1.00;8.70;100110.00;;;;5079810;28;20457;-82
2022/02/04 07:24:46;;;;;;;12.77;9.80;;;8.30;1.00;8.80;100118.00;;;;5079921;28;20446;-83
2022/02/04 07:27:15;;;;;;;11.53;9.53;;;8.30;1.00;8.70;100101.00;;;;5089258;28;20538;-82
2022/02/04 07:29:47;;;;;;;11.60;9.70;;;8.30;1.00;8.70;100106.00;;;;5093132;28;20443;-83
2022/02/04 07:32:20;;;;;;;11.40;9.70;;;8.30;1.00;8.80;100101.00;;;;5087757;28;20478;-83
2022/02/04 07:35:11;;;;;;;11.47;9.93;;;8.40;1.00;8.90;100111.00;;;;5079544;28;20450;-83
2022/02/04 07:43:09;;;;;;;11.77;8.80;;;8.40;1.00;8.90;100105.00;;;;5086104;28;20462;-84
2022/02/04 07:45:41;;;;;;;10.13;8.97;;;8.40;1.00;8.80;100112.00;;;;5089733;28;20904;-85
2022/02/04 07:48:09;;;;;;;11.03;9.87;;;8.60;1.00;8.80;100105.00;;;;5109688;28;20465;-85
2022/02/04 07:50:38;;;;;;;11.40;9.53;;;8.40;1.00;8.90;100099.00;;;;5098221;28;20480;-83
2022/02/04 07:53:06;;;;;;;13.27;9.63;;;8.50;1.00;8.90;100106.00;;;;5112543;28;20476;-84
2022/02/04 07:55:34;;;;;;;12.10;9.50;;;8.40;1.00;8.90;100112.00;;;;5094190;28;20447;-84
2022/02/04 07:58:03;;;;;;;11.30;9.20;;;8.40;1.00;8.90;100107.00;;;;5113369;28;20455;-85
2022/02/04 08:00:34;;;;;;;12.73;9.57;;;8.50;1.00;8.90;100089.00;;;;5086856;28;21136;-84
2022/02/04 08:03:15;;;;;;;11.10;9.17;;;8.50;1.00;9.00;100099.00;;;;5091823;28;20459;-85
2022/02/04 08:05:44;;;;;;;12.10;10.03;;;8.60;1.00;9.10;100094.00;;;;5088423;28;20525;-84
2022/02/04 08:08:19;;;;;;;11.93;9.27;;;8.60;1.00;9.10;100091.00;;;;5084691;28;20457;-84
2022/02/04 08:11:04;;;;;;;10.67;9.30;;;8.70;1.00;9.10;100103.00;;;;5088496;28;20479;-85
2022/02/04 08:13:51;;;;;;;11.83;9.90;;;8.70;1.00;9.10;100113.00;;;;5085343;28;20458;-83
2022/02/04 08:16:54;;;;;;;10.57;8.97;;;8.70;1.00;9.10;100116.00;;;;5086451;28;20461;-85
2022/02/04 08:22:26;;;;;;;11.77;8.40;;;8.70;1.00;9.10;100093.00;;;;5088548;28;20452;-82
2022/02/04 08:25:16;;;;;;;10.13;7.80;;;8.70;1.00;9.10;100083.00;;;;5085387;28;20454;-83
2022/02/04 08:28:30;;;;;;;10.67;9.07;;;8.70;1.00;9.10;100089.00;;;;5081620;28;20462;-83
2022/02/04 08:34:05;;;;;;;12.00;9.53;;;8.50;1.00;9.00;100083.00;;;;5072422;28;20465;-82
2022/02/04 08:53:58;;;;;;;10.30;8.60;;;8.60;1.00;9.20;100063.00;;;;5078941;28;20527;-83
2022/02/04 08:56:39;;;;;;;11.53;9.30;;;8.70;1.00;9.10;100087.00;;;;5081329;28;20487;-83
2022/02/04 08:59:14;;;;;;;11.30;10.10;;;8.70;1.00;9.10;100080.00;;;;5085328;28;20447;-83
2022/02/04 09:01:52;;;;;;;13.47;10.17;;;8.70;1.00;9.10;100069.00;;;;5079564;28;20470;-82
2022/02/04 09:04:30;;;;;;;11.00;9.30;;;8.60;1.00;9.10;100076.00;;;;5080802;28;20455;-82
2022/02/04 09:07:02;;;;;;;11.80;9.83;;;8.60;1.00;9.10;100079.00;;;;5079311;28;20453;-83
2022/02/04 09:09:47;;;;;;;11.90;9.40;;;8.70;1.00;9.10;100083.00;;;;5081744;28;20549;-83
2022/02/04 09:21:08;;;;;;;10.87;8.87;;;8.70;1.00;9.20;100074.00;;;;5081146;28;20765;-84
2022/02/04 09:23:37;;;;;;;9.97;7.70;;;8.70;1.00;9.20;100082.00;;;;5087688;28;20483;-83
2022/02/04 09:26:07;;;;;;;13.30;8.43;;;8.80;1.00;9.20;100079.00;;;;5089841;28;20439;-84
2022/02/04 09:28:36;;;;;;;8.70;7.83;;;8.70;1.00;9.10;100066.00;;;;5085573;28;20454;-83
2022/02/04 09:31:07;;;;;;;9.93;8.93;;;8.70;1.00;9.10;100063.00;;;;5085575;28;20479;-84
2022/02/04 09:33:35;;;;;;;7.17;6.27;;;8.70;1.00;9.20;100068.00;;;;5088658;28;20477;-84
2022/02/04 09:36:04;;;;;;;8.77;7.37;;;8.70;1.00;9.10;100069.00;;;;5084271;28;20459;-84
2022/02/04 09:38:33;;;;;;;8.53;7.63;;;8.70;1.00;9.20;100054.00;;;;5085937;28;20531;-82
2022/02/04 09:41:01;;;;;;;9.50;7.37;;;8.70;1.00;9.20;100070.00;;;;5083110;28;20513;-83
2022/02/04 09:43:32;;;;;;;10.53;8.50;;;8.70;1.00;9.20;100067.00;;;;5066010;28;20538;-85
2022/02/04 09:46:01;;;;;;;12.60;8.53;;;8.70;1.00;9.20;100070.00;;;;5079747;28;20552;-85
2022/02/04 09:48:30;;;;;;;10.10;8.50;;;8.90;1.00;9.30;100056.00;;;;5078553;28;20590;-85
2022/02/04 09:51:00;;;;;;;8.17;6.53;;;8.80;1.00;9.30;100063.00;;;;5080700;28;20573;-85
2022/02/04 10:05:51;;;;;;;9.30;7.40;;;9.20;1.00;9.60;100049.00;;;;5085159;28;20459;-84
2022/02/04 10:08:04;;;;;;;9.40;7.20;;;9.20;1.00;9.60;100037.00;;;;5071411;28;20906;-84
2022/02/04 10:10:58;;;;;;;10.03;8.40;;;9.10;1.00;9.50;100048.00;;;;5059646;28;21030;-84
2022/02/04 10:16:34;;;;;;;8.37;6.73;;;9.10;1.00;9.60;100055.00;;;;5057853;28;20457;-84
2022/02/04 10:19:14;;;;;;;8.30;6.97;;;9.30;1.00;9.70;100037.00;;;;5073763;28;20446;-86
2022/02/04 10:21:42;;;;;;;8.47;6.53;;;9.20;1.00;9.60;100029.00;;;;5076173;28;20466;-85
2022/02/04 10:24:11;;;;;;;10.70;7.57;;;9.20;1.00;9.70;100040.00;;;;5078521;28;20454;-85
2022/02/04 10:26:40;;;;;;;9.60;8.30;;;9.10;1.00;9.80;100035.00;;;;5079060;28;21272;-86
2022/02/04 10:29:08;;;;;;;10.07;9.00;;;9.30;1.00;9.80;100026.00;;;;5076771;28;20451;-85
2022/02/04 10:31:38;;;;;;;7.60;6.80;;;9.30;1.00;9.80;100023.00;;;;5078074;28;20473;-85
2022/02/04 10:34:10;;;;;;;11.07;9.00;;;9.10;1.00;9.80;100027.00;;;;5079925;28;20484;-85
2022/02/04 10:36:49;;;;;;;6.90;5.90;;;9.30;1.00;9.80;100016.00;;;;5079574;28;20534;-85
2022/02/04 10:39:36;;;;;;;6.27;5.67;;;9.30;1.00;9.80;100020.00;;;;5074666;28;20453;-84
2022/02/04 10:42:18;;;;;;;8.00;7.20;;;9.30;1.00;9.70;99999.00;;;;5073285;28;20469;-84
2022/02/04 10:45:08;;;;;;;7.50;6.00;;;9.40;1.00;9.70;100009.00;;;;5077104;28;20454;-84
2022/02/04 10:56:37;;;;;;;7.17;5.53;;;9.20;1.00;9.70;100001.00;;;;5068954;28;20454;-85
2022/02/04 10:59:27;;;;;;;6.43;5.30;;;9.20;1.00;9.70;99999.00;;;;5067285;28;20454;-84
2022/02/04 11:02:16;;;;;;;5.90;5.10;;;9.20;1.00;9.60;99996.00;;;;5080841;28;20488;-86
2022/02/04 11:05:02;;;;;;;6.13;5.50;;;9.10;1.00;9.50;99988.00;;;;5083318;28;20464;-82
2022/02/04 11:08:04;;;;;;;6.70;5.70;;;9.10;1.00;9.50;99973.00;;;;5083026;28;20446;-86
2022/02/04 11:30:55;;;;;;;6.40;5.30;;;9.40;1.00;9.80;99973.00;;;;5105305;28;20474;-84
2022/02/04 11:34:20;;;;;;;4.73;4.23;;;9.40;1.00;9.80;99949.00;;;;5070538;28;20478;-86
2022/02/04 11:54:53;;;;;;;3.53;3.00;;;9.50;1.00;10.00;99915.00;;;;5081274;28;20474;-85
2022/02/04 11:57:25;;;;;;;5.10;2.80;;;9.50;1.00;10.00;99912.00;;;;5084522;28;20459;-86
2022/02/04 12:00:01;;;;;;;4.10;3.30;;;9.50;1.00;10.10;99926.00;;;;5079483;28;20454;-86
2022/02/04 12:02:50;;;;;;;3.77;3.37;;;9.70;1.00;10.10;99921.00;;;;5079827;28;20450;-86
2022/02/04 12:05:35;;;;;;;4.90;4.30;;;9.70;1.00;10.40;99914.00;;;;5093767;28;20493;-85
2022/02/04 12:08:27;;;;;;;5.47;4.10;;;9.90;1.00;10.60;99890.00;;;;5080115;28;20541;-85
2022/02/04 12:11:04;;;;;;;3.60;2.97;;;10.10;1.00;10.60;99876.00;;;;5092421;28;20560;-85
2022/02/04 12:14:13;;;;;;;3.90;3.30;;;10.20;1.00;10.60;99878.00;;;;5114794;28;20477;-84
2022/02/04 12:17:08;;;;;;;3.93;2.83;;;10.20;1.00;10.70;99870.00;;;;5086707;28;20455;-84
2022/02/04 12:19:44;;;;;;;4.03;3.30;;;10.20;1.00;10.70;99869.00;;;;5081966;28;20557;-84
2022/02/04 12:22:13;;;;;;;3.83;3.20;;;10.20;1.00;10.50;99853.00;;;;5081447;28;20490;-84
2022/02/04 12:24:46;;;;;;;3.50;2.80;;;10.10;1.00;10.50;99869.00;;;;5059324;28;20451;-84
2022/02/04 12:27:37;;;;;;;3.57;3.10;;;10.00;1.00;10.50;99862.00;;;;5074967;28;20454;-85
2022/02/04 12:30:45;;;;;;;4.13;3.03;;;10.10;1.00;10.40;99871.00;;;;5078333;28;20466;-85
2022/02/04 12:33:17;;;;;;;4.67;3.23;;;10.00;1.00;10.40;99865.00;;;;5075640;28;20485;-85
2022/02/04 12:35:46;;;;;;;4.83;2.80;;;9.90;1.00;10.40;99864.00;;;;5077539;28;20744;-85
2022/02/04 12:38:14;;;;;;;3.70;2.77;;;9.90;1.00;10.40;99852.00;;;;5069893;28;20465;-85
2022/02/04 12:40:43;;;;;;;3.77;3.13;;;9.90;1.00;10.40;99839.00;;;;5072581;28;20471;-84
2022/02/04 12:43:15;;;;;;;4.60;2.90;;;9.90;1.00;10.40;99849.00;;;;5072724;28;20462;-83
2022/02/04 12:45:47;;;;;;;3.43;3.07;;;9.90;1.00;10.20;99835.00;;;;5074405;28;20463;-84
2022/02/04 12:48:16;;;;;;;3.80;3.10;;;9.80;1.00;10.20;99835.00;;;;5091531;28;20467;-84
2022/02/04 12:50:52;;;;;;;5.47;2.33;;;9.80;1.00;10.30;99817.00;;;;5097150;28;20485;-85
2022/02/04 12:53:26;;;;;;;3.77;2.60;;;9.80;1.00;10.30;99823.00;;;;5087183;28;20450;-84
2022/02/04 12:56:07;;;;;;;2.60;1.80;;;9.80;1.00;10.20;99820.00;;;;5094070;28;20483;-84
2022/02/04 12:59:06;;;;;;;3.20;2.53;;;9.70;1.00;10.00;99817.00;;;;5081055;28;20454;-84
2022/02/04 13:07:37;;;;;;;2.60;2.33;;;9.60;1.00;10.10;99817.00;;;;4999966;28;20495;-85
2022/02/04 13:10:23;;;;;;;2.50;2.13;;;9.60;1.00;10.00;99806.00;;;;5077728;28;20561;-85
2022/02/04 13:12:58;;;;;;;3.30;2.53;;;9.60;1.00;10.20;99788.00;;;;5085416;28;20446;-85
2022/02/04 13:15:32;;;;;;;2.73;2.20;;;9.70;1.00;10.30;99792.00;;;;5078368;28;20922;-84
2022/02/04 13:18:01;;;;;;;2.83;2.20;;;9.80;1.00;10.30;99788.00;;;;5079595;28;20485;-85
2022/02/04 13:20:30;;;;;;;2.50;2.27;;;9.80;1.00;10.40;99767.00;;;;5078166;28;20475;-85
2022/02/04 13:23:08;;;;;;;6.03;2.00;;;9.90;1.00;10.50;99784.00;;;;5080295;28;20450;-86
2022/02/04 13:25:38;;;;;;;2.63;1.97;;;10.00;1.00;10.40;99760.00;;;;5077585;28;21595;-85
2022/02/04 13:28:14;;;;;;;3.90;2.03;;;9.90;1.00;10.40;99766.00;;;;5075906;28;20528;-85
2022/02/04 13:30:59;;;;;;;3.40;2.00;;;9.90;1.00;10.40;99768.00;;;;5061590;28;20590;-86
2022/02/04 13:33:30;;;;;;;2.50;1.80;;;9.90;1.00;10.30;99751.00;;;;5079225;28;20486;-84
2022/02/04 13:36:07;;;;;;;2.47;1.67;;;9.90;1.00;10.30;99753.00;;;;5083033;28;20453;-85
2022/02/04 13:38:47;;;;;;;3.77;2.13;;;9.80;1.00;10.30;99750.00;;;;5062424;28;20472;-85
2022/02/04 13:41:29;;;;;;;2.13;1.80;;;9.90;1.00;10.40;99749.00;;;;5073745;28;20485;-84
2022/02/04 13:44:26;;;;;;;4.53;2.27;;;9.90;1.00;10.40;99732.00;;;;5074271;28;20455;-85
2022/02/04 13:47:20;;;;;;;2.70;1.60;;;9.90;1.00;10.30;99746.00;;;;5076129;28;20454;-85
2022/02/04 13:50:05;;;;;;;2.10;1.70;;;9.80;1.00;10.20;99724.00;;;;5078858;28;20465;-84
2022/02/04 13:55:30;;;;;;;3.30;1.63;;;9.70;1.00;10.20;99732.00;;;;5050762;28;20482;-84
2022/02/04 13:58:23;;;;;;;3.10;1.87;;;9.70;1.00;10.30;99709.00;;;;5085489;28;20870;-85
2022/02/04 14:01:06;;;;;;;3.07;1.43;;;9.80;1.00;10.20;99710.00;;;;5084087;28;20466;-85
2022/02/04 14:03:43;;;;;;;2.20;1.57;;;9.80;1.00;10.20;99722.00;;;;5087864;28;20454;-84
2022/02/04 14:06:15;;;;;;;1.47;1.03;;;9.70;1.00;10.10;99705.00;;;;5094663;28;20478;-86
2022/02/04 14:08:51;;;;;;;2.30;1.37;;;9.70;1.00;10.00;99713.00;;;;5092939;28;20469;-85
2022/02/04 14:11:30;;;;;;;1.80;1.20;;;9.50;1.00;9.90;99701.00;;;;5078031;28;20470;-85
2022/02/04 14:14:07;;;;;;;1.67;1.00;;;9.40;1.00;9.80;99693.00;;;;5078423;28;20453;-85
2022/02/04 14:16:37;;;;;;;2.40;1.07;;;9.40;1.00;9.80;99696.00;;;;5078712;28;20450;-84
2022/02/04 14:19:08;;;;;;;2.00;1.20;;;9.30;1.00;9.80;99700.00;;;;5092265;28;20464;-86
2022/02/04 14:21:36;;;;;;;1.80;1.10;;;9.30;1.00;9.80;99729.00;;;;5094235;28;20479;-86
2022/02/04 14:24:10;;;;;;;2.27;1.10;;;9.40;1.00;9.80;99720.00;;;;5080815;28;20454;-84
2022/02/04 14:26:43;;;;;;;1.83;1.03;;;9.30;1.00;9.80;99694.00;;;;5079567;28;20461;-84
2022/02/04 14:29:17;;;;;;;2.30;1.20;;;9.40;1.00;9.80;99716.00;;;;5079762;28;20452;-86
2022/02/04 14:31:52;;;;;;;1.53;1.00;;;9.60;1.00;9.80;99720.00;;;;5099001;28;20466;-85
2022/02/04 14:34:54;;;;;;;3.80;1.47;;;9.30;1.00;9.70;99706.00;;;;5090065;28;20550;-84
2022/02/04 14:37:42;;;;;;;3.10;1.80;;;9.30;1.00;9.80;99710.00;;;;5089882;28;20462;-86
2022/02/04 14:54:07;;;;;;;2.47;1.10;;;9.30;1.00;9.90;99704.00;;;;5079559;28;20454;-84
2022/02/04 15:02:11;;;;;;;2.03;1.17;;;9.40;1.00;9.80;99690.00;;;;5078078;28;20494;-85
2022/02/04 15:04:45;;;;;;;5.13;1.00;;;9.30;1.00;9.70;99682.00;;;;5081831;28;20442;-85
2022/02/04 15:07:15;;;;;;;1.40;0.80;;;9.30;1.00;9.70;99693.00;;;;5082694;28;20878;-85
2022/02/04 15:09:52;;;;;;;2.10;1.00;;;9.30;1.00;9.70;99696.00;;;;5067220;28;20475;-85
2022/02/04 15:12:23;;;;;;;1.93;1.00;;;9.30;1.00;9.70;99678.00;;;;5103870;28;20477;-86
2022/02/04 15:14:52;;;;;;;1.63;1.10;;;9.30;1.00;9.70;99695.00;;;;5091632;28;20471;-84
2022/02/04 15:17:21;;;;;;;1.97;0.80;;;9.30;1.00;9.80;99674.00;;;;5086837;28;20444;-85
2022/02/04 15:19:50;;;;;;;1.33;0.63;;;9.30;1.00;9.80;99683.00;;;;5082497;28;21413;-85
2022/02/04 15:22:26;;;;;;;3.10;1.10;;;9.30;1.00;9.80;99684.00;;;;5063403;28;20458;-83
2022/02/04 15:24:59;;;;;;;1.10;0.77;;;9.30;1.00;9.70;99681.00;;;;5081431;28;20480;-84
2022/02/04 15:27:27;;;;;;;2.90;1.17;;;9.30;1.00;9.70;99683.00;;;;5081102;28;20466;-84
2022/02/04 15:29:56;;;;;;;1.90;1.07;;;9.30;1.00;9.50;99687.00;;;;5093260;28;20458;-84
2022/02/04 15:32:25;;;;;;;1.60;1.10;;;9.10;1.00;9.40;99680.00;;;;5082521;28;20447;-85
2022/02/04 15:34:54;;;;;;;1.30;1.00;;;9.00;1.00;9.40;99677.00;;;;5070515;28;20583;-85
2022/02/04 15:37:24;;;;;;;1.70;1.10;;;9.10;1.00;9.30;99664.00;;;;5100743;28;21251;-84
2022/02/04 15:39:53;;;;;;;1.30;1.10;;;8.90;1.00;9.30;99659.00;;;;5089884;28;20434;-86
2022/02/04 15:42:23;;;;;;;1.40;1.00;;;8.80;1.00;9.20;99656.00;;;;5090642;28;20462;-84
2022/02/04 15:45:11;;;;;;;1.63;1.27;;;8.70;1.00;9.10;99668.00;;;;5066700;28;20453;-82
2022/02/04 15:47:54;;;;;;;3.50;1.40;;;8.70;1.00;9.10;99651.00;;;;5082871;28;20461;-86
2022/02/04 15:50:30;;;;;;;2.00;1.27;;;8.90;1.00;9.10;99651.00;;;;5086229;28;20469;-84
2022/02/04 15:53:21;;;;;;;1.67;1.20;;;8.70;1.00;9.10;99653.00;;;;5088461;28;20434;-85
2022/02/04 16:01:44;;;;;;;1.57;1.17;;;8.70;1.00;9.30;99648.00;;;;5085225;28;20466;-84
2022/02/04 16:04:26;;;;;;;2.13;1.10;;;8.80;1.00;9.30;99641.00;;;;5083584;28;20514;-85